• Join FlightAware (Why Join?)
  • Login
  • US Flag 
04:07AM EDT


 

Airport Tracker/Info


-or-


 

Live Flight TrackerFlight Track Log ✈ N400TM ✈ 27-Feb-2012 ✈ KGJT - KPRC

Flight Track Log - Related Links

Times and Time Zones

All times are in EST time to prevent confusion due to time zone crossing. See the N400TM flight status page for this flight to view local times or setup timezone preferences in your user account.

Time Position Orientation Groundspeed Altitude Reporting Facility
EST Latitude Longitude Course Direction KTS MPH feet Rate Location/Type
12:59PM 38.8842 -108.8789 230° Southwest 127 146 12,500  Level Denver Center
01:00PM 38.8650 -108.9078 228° Southwest 127 146 12,500  Level Denver Center
01:01PM 38.8411 -108.9414 236° Southwest 127 146 12,500  Level Denver Center
01:02PM 38.8194 -108.9833 228° Southwest 140 161 12,500  Level Denver Center
01:03PM 38.7936 -109.0197 234° Southwest 145 167 12,500  Level Denver Center
01:04PM 38.7697 -109.0614 231° Southwest 156 180 12,500  Level Denver Center
01:05PM 38.7417 -109.1056 227° Southwest 161 185 12,500  Level Denver Center
01:06PM 38.7114 -109.1472 235° Southwest 156 180 12,500  Level Denver Center
01:07PM 38.6831 -109.1992 223° Southwest 169 194 12,500  Level Denver Center
01:08PM 38.6553 -109.2328 231° Southwest 168 193 12,500  Level Denver Center
01:09PM 38.6292 -109.2742 211° Southwest 156 180 12,500  Level Denver Center
01:10PM 38.5931 -109.3019 214° Southwest 144 166 12,500  Level Denver Center
01:11PM 38.5611 -109.3300 210° Southwest 139 160 12,500  Level Denver Center
01:12PM 38.5336 -109.3500 212° Southwest 139 160 12,500  Level Denver Center
01:13PM 38.4994 -109.3778 212° Southwest 145 167 12,500  Level Denver Center
01:14PM 38.4653 -109.4056 211° Southwest 145 167 12,500  Level Denver Center
01:15PM 38.4292 -109.4333 213° Southwest 150 173 12,500  Level Denver Center
01:16PM 38.3994 -109.4583 214° Southwest 150 173 12,500  Level Denver Center
01:17PM 38.3672 -109.4861 217° Southwest 150 173 12,500  Level Denver Center
01:18PM 38.3331 -109.5192 215° Southwest 145 167 12,600  Climbing Denver Center
01:19PM 38.2967 -109.5519 218° Southwest 150 173 12,600  Level Denver Center
01:20PM 38.2689 -109.5800 216° Southwest 150 173 12,600  Level Denver Center
01:21PM 38.2367 -109.6103 213° Southwest 150 173 12,600 -60 Level Denver Center
01:22PM 38.2006 -109.6403 217° Southwest 150 173 12,500 -60 Descending Denver Center
01:23PM 38.1661 -109.6731 217° Southwest 150 173 12,500  Level Denver Center
01:24PM 38.1342 -109.7033 212° Southwest 161 185 12,500  Level Denver Center
01:25PM 38.1022 -109.7283 216° Southwest 161 185 12,500  Level Denver Center
01:26PM 38.0636 -109.7633 206° Southwest 156 180 12,500  Level Denver Center
01:27PM 38.0358 -109.7806 210° Southwest 148 170 12,500  Level Denver Center
01:28PM 37.9956 -109.8103 207° Southwest 148 170 12,500  Level Denver Center
01:29PM 37.9572 -109.8347 208° Southwest 148 170 12,500  Level Denver Center
01:30PM 37.9211 -109.8594 208° Southwest 148 170 12,500  Level Denver Center
01:31PM 37.8914 -109.8792 215° Southwest 148 170 12,500  Level Denver Center
01:44PM 37.4797 -110.2361 215° Southwest 148 170 12,500 120 Level Denver Center
01:45PM 37.4517 -110.2608 215° Southwest 117 135 14,200 960 Climbing Denver Center
01:46PM 37.4261 -110.2831 212° Southwest 117 135 14,500 240 Climbing Denver Center
01:47PM 37.3983 -110.3050 215° Southwest 117 135 14,700 60 Climbing Denver Center
01:48PM 37.3703 -110.3297 209° Southwest 117 135 14,700  Level Denver Center
01:49PM 37.3361 -110.3539 214° Southwest 128 147 14,700  Level Denver Center
01:50PM 37.3017 -110.3833 211° Southwest 139 160 14,700  Level Denver Center
01:51PM 37.2697 -110.4078 213° Southwest 144 166 14,700  Level Denver Center
01:52PM 37.2394 -110.4322 212° Southwest 150 173 14,700  Level Denver Center
01:53PM 37.2117 -110.4542 222° Southwest 143 165 14,700  Level Denver Center
01:54PM 37.1856 -110.4842 222° Southwest 143 165 14,700  Level Denver Center
01:55PM 37.1575 -110.5164 222° Southwest 138 159 14,700  Level Denver Center
01:56PM 37.1292 -110.5486 213° Southwest 138 159 14,700  Level Denver Center
01:57PM 37.0969 -110.5753 207° Southwest 143 165 14,700  Level Denver Center
01:58PM 37.0628 -110.5969 208° Southwest 143 165 14,700 -60 Level Denver Center
01:59PM 37.0264 -110.6208 206° Southwest 143 165 14,600 -60 Descending Denver Center
02:00PM 36.9881 -110.6447 213° Southwest 148 170 14,600  Level Denver Center
02:01PM 36.9581 -110.6689 218° Southwest 142 163 14,600  Level Denver Center
02:02PM 36.9256 -110.7008 218° Southwest 147 169 14,600  Level Denver Center
02:03PM 36.8931 -110.7325 228° Southwest 152 175 14,600 -1,080 Level Denver Center
02:04PM 36.8733 -110.7600 220° Southwest 137 158 12,500  Descending Denver Center
02:05PM 36.8450 -110.7894 224° Southwest 137 158 14,600 960 Climbing Denver Center
02:06PM 36.8167 -110.8242 222° Southwest 145 167 14,500 -60 Descending Denver Center
02:07PM 36.7861 -110.8586 205° Southwest 145 167 14,500  Level Denver Center
02:08PM 36.7500 -110.8797 196° South 151 174 14,500  Level Denver Center
02:09PM 36.7075 -110.8953 197° South 146 168 14,500  Level Denver Center
02:10PM 36.6717 -110.9086 193° South 146 168 14,500  Level Denver Center
02:11PM 36.6336 -110.9192 191° South 151 174 14,500  Level Denver Center
02:12PM 36.5981 -110.9275 203° Southwest 145 167 14,500  Level Denver Center
02:13PM 36.5553 -110.9506 220° Southwest 145 167 14,500  Level Denver Center
02:14PM 36.5272 -110.9800 218° Southwest 140 161 14,500  Level Denver Center
02:15PM 36.4947 -111.0114 215° Southwest 145 167 14,600  Climbing Denver Center
02:16PM 36.4644 -111.0381 210° Southwest 139 160 14,600  Level Denver Center
02:17PM 36.4386 -111.0569 212° Southwest 139 160 14,600  Level Denver Center
02:18PM 36.4042 -111.0833 202° Southwest 139 160 14,600  Level Denver Center
02:19PM 36.3681 -111.1017 205° Southwest 139 160 14,600  Level Denver Center
02:20PM 36.3361 -111.1203 210° Southwest 139 160 14,600  Level Denver Center
02:21PM 36.2994 -111.1464 210° Southwest 139 160 14,600  Level Denver Center
02:22PM 36.2631 -111.1722 217° Southwest 139 160 14,600  Level Denver Center
02:23PM 36.2347 -111.1989 216° Southwest 144 166 14,600  Level Denver Center
02:24PM 36.2003 -111.2300 214° Southwest 149 171 14,600  Level Denver Center
02:25PM 36.1656 -111.2586 218° Southwest 144 166 14,600 -180 Level Denver Center
02:26PM 36.1353 -111.2875 213° Southwest 149 171 14,300 -540 Descending Denver Center
02:27PM 36.0964 -111.3183 212° Southwest 154 177 13,600 -900 Descending Denver Center
02:28PM 36.0533 -111.3514 211° Southwest 166 191 12,500 -600 Descending Denver Center
02:30PM 35.9858 -111.4017 213° Southwest 190 219 12,000 -240 Descending Albuquerque Center
02:31PM 35.9472 -111.4331 210° Southwest 190 219 12,000 60 Level Albuquerque Center
02:32PM 35.9064 -111.4617 212° Southwest 183 211 12,200 60 Climbing Albuquerque Center
02:33PM 35.8722 -111.4883 205° Southwest 166 191 12,200  Level Albuquerque Center
02:34PM 35.8361 -111.5094 210° Southwest 161 185 12,200  Level Albuquerque Center
02:35PM 35.7953 -111.5381 209° Southwest 166 191 12,200  Level Albuquerque Center
02:36PM 35.7611 -111.5617 216° Southwest 161 185 12,200  Level Albuquerque Center
02:37PM 35.7289 -111.5908 210° Southwest 156 180 12,300 -180 Climbing Albuquerque Center
02:38PM 35.6925 -111.6169 214° Southwest 150 173 11,900 -660 Descending Albuquerque Center
02:39PM 35.6517 -111.6506 210° Southwest 162 186 11,000 -600 Descending Albuquerque Center
02:40PM 35.6153 -111.6767 211° Southwest 162 186 10,700 -180 Descending Albuquerque Center
02:41PM 35.5767 -111.7053 211° Southwest 162 186 10,700  Level Albuquerque Center
02:42PM 35.5381 -111.7339 217° Southwest 162 186 10,800  Climbing Albuquerque Center
02:43PM 35.5014 -111.7675 213° Southwest 162 186 10,700 840 Descending Albuquerque Center
02:44PM 35.4625 -111.7986 126° Southeast 162 186 12,500  Climbing Albuquerque Center
02:45PM 35.4547 -111.7853 202° Southwest 120 138 10,700 -960 Descending Albuquerque Center
02:46PM 35.4314 -111.7969 198° South 110 127 10,700  Level Albuquerque Center
02:47PM 35.4039 -111.8081 230° Southwest 105 121 10,700  Level Albuquerque Center
02:48PM 35.3817 -111.8400 235° Southwest 105 121 10,700 -60 Level Albuquerque Center
02:49PM 35.3617 -111.8744 229° Southwest 118 136 10,600 -120 Descending Albuquerque Center
02:50PM 35.3353 -111.9111 227° Southwest 140 161 10,500 -120 Descending Albuquerque Center
02:51PM 35.3089 -111.9453 220° Southwest 140 161 10,400  Descending Albuquerque Center
02:52PM 35.2783 -111.9767 204° Southwest 140 161 10,600 60 Climbing Albuquerque Center
02:53PM 35.2444 -111.9950 202° Southwest 140 161 10,600  Level Albuquerque Center
02:54PM 35.2125 -112.0111 210° Southwest 135 155 10,600  Level Albuquerque Center
02:55PM 35.1825 -112.0322 215° Southwest 135 155 10,600  Level Albuquerque Center
02:56PM 35.1522 -112.0583 211° Southwest 135 155 10,600 -60 Level Albuquerque Center
02:57PM 35.1200 -112.0819 215° Southwest 135 155 10,500 -60 Descending Albuquerque Center
02:58PM 35.0897 -112.1081 208° Southwest 140 161 10,500 -300 Level Albuquerque Center
02:59PM 35.0533 -112.1314 211° Southwest 150 173 9,900 -600 Descending Albuquerque Center
03:00PM 35.0147 -112.1594 209° Southwest 155 178 9,300 -420 Descending Albuquerque Center
03:01PM 34.9739 -112.1875 212° Southwest 161 185 9,100 -180 Descending Albuquerque Center
03:02PM 34.9372 -112.2156 212° Southwest 166 191 9,000 -120 Descending Albuquerque Center